Aérodrome :
LOGIN :

S'inscrire | Disclaimer

   EN    FR    IT 

 










Légende :    VFR   VFR Marginal   IFR   IFR Intensif   IFR Très Intensif
Visi : 
Plafond : 
>= 8 km
>= 3000ft
5 à 8 km
1000 à 3000 ft
1500m à 5 km
500 à 1000 ft
800 à 1500m
200 à 500 ft
< 800m
< 200 ft
Symboles :   Orages  Brouillard  Fortes neiges  Fortes précipitations  Vent > 20 kt
SIGMETs :   Divers  Orages  Givrage  Turbulence  Onde Orograph.  Cendres Volcan.







- Altitude de l'aérodrome : 600 ft
- Code IATA : VIE


LOWW - Vienna Schwechat

DERNIER METAR :
  • 190120Z 34006KT 3200 -SN BR FEW002 BKN004 OVC011 M01/M01 Q1017 TEMPO 2500

METARs EXPIRÉS :
  • 190050Z 33005KT 2800 -SN BR FEW002 BKN004 OVC008 M01/M01 Q1017 NOSIG
  • 190020Z 33006KT 2600 -SN BR FEW003 BKN005 OVC008 M01/M01 Q1017 TEMPO OVC004
  • 182350Z 33005KT 3400 -SN BR FEW003 BKN005 OVC008 M00/M01 Q1017 TEMPO 2500 OVC004
  • 182320Z 33005KT 4000 -SN BR BKN005 OVC007 M00/M01 Q1018 NOSIG
  • 182250Z 33006KT 4300 -SN BR FEW005 OVC006 M00/M01 Q1018 TEMPO OVC005

TAF AMD TAF LOWW
Valide du 19 à 00h jusqu'au 20 à 06h UTC


182339Z 1900/2006 36007KT 5000 -SN BR BKN010 OVC020 TX04/1911Z TN00/1902Z
TEMPO 1900/1910 2500 BKN004 OVC006
BECMG 1910/1912 05005KT
BECMG 1913/1915 11008KT 9999 NSW BKN030
Pas de NOTAMs connus pour ce terrain.
1 SIGMET publié pour la FIR Wien (LOVV) :
 
Givrage fort
LOVV SIGMET 1 VALID 182246/190245 LOWW
LOVV WIEN FIR SEV ICE FCST SE OF LINE N4630 E01340 - N4800 E01710 3000/9000FT STNR NC=



MET'MAP, la Météo Aéronautique d'un coup d'oeil ! - Copyright ORBIFLY Décembre 2007 - Disclaimer

ORBIFLY MET'MAP TEAM :

Programmation & Développement : Alexandra Zaïnal
Conception & Développement : Baudouin d'Aumeries
Co-Programmation & Développement : Marc-Olivier Méhu
Soutien technique & logistique : Manuel Goepfert

Contact : metmap@orbifly.com




SOURCES & CREDITS :

   NOAA